Time;durP1;ratioP1;P1;durP2;ratioP2;P2;SDS_P1;SDS_P2;PMS_P1;PMS_P2;Temp;Humidity;BMP_temperature;BMP_pressure;BME280_temperature;BME280_humidity;BME280_pressure;Samples;Min_cycle;Max_cycle;Signal;HPM_P1;HPM_P2
2022/05/12 00:00:11;;;;;;;;;;;25.60;42.30;;;;;;5088934;28;19924;-69
2022/05/12 00:02:38;;;;;;;;;;;25.60;42.30;;;;;;5088907;28;20400;-69
2022/05/12 00:05:05;;;;;;;;;;;25.60;42.30;;;;;;5089055;28;20025;-70
2022/05/12 00:07:33;;;;;;;;;;;25.60;42.30;;;;;;5084153;28;19969;-69
2022/05/12 00:10:00;;;;;;;;;;;25.60;42.30;;;;;;5089085;28;19971;-69
2022/05/12 00:12:27;;;;;;;;;;;25.60;42.30;;;;;;5089223;28;19924;-69
2022/05/12 00:14:54;;;;;;;;;;;25.60;42.30;;;;;;5088467;28;19967;-69
2022/05/12 00:17:21;;;;;;;;;;;25.60;42.30;;;;;;5089197;28;19931;-70
2022/05/12 00:19:48;;;;;;;;;;;25.60;42.30;;;;;;5088699;28;20206;-69
2022/05/12 00:22:15;;;;;;;;;;;25.60;42.30;;;;;;5088737;28;20023;-69
2022/05/12 00:24:42;;;;;;;;;;;25.60;42.30;;;;;;5088144;28;19975;-69
2022/05/12 00:27:09;;;;;;;;;;;25.60;42.30;;;;;;5070137;28;20214;-69
2022/05/12 00:29:36;;;;;;;;;;;25.60;42.30;;;;;;5088448;28;20180;-69
2022/05/12 00:32:04;;;;;;;;;;;25.60;42.30;;;;;;5088595;28;20392;-70
2022/05/12 00:34:31;;;;;;;;;;;25.50;42.30;;;;;;5088274;28;19927;-69
2022/05/12 00:36:57;;;;;;;;;;;25.60;42.30;;;;;;5086711;28;19985;-69
2022/05/12 00:39:24;;;;;;;;;;;25.60;42.30;;;;;;5085160;28;19974;-69
2022/05/12 00:41:51;;;;;;;;;;;25.50;42.30;;;;;;5088223;28;19968;-69
2022/05/12 00:44:19;;;;;;;;;;;25.50;42.30;;;;;;5088703;28;19927;-69
2022/05/12 00:46:49;;;;;;;;;;;25.50;42.30;;;;;;5087993;28;20421;-69
2022/05/12 00:49:20;;;;;;;;;;;25.50;42.30;;;;;;5088273;28;19924;-70
2022/05/12 00:51:56;;;;;;;;;;;25.50;42.30;;;;;;5088089;28;19924;-69
2022/05/12 00:54:26;;;;;;;;;;;25.50;42.40;;;;;;5088470;28;19924;-69
2022/05/12 00:56:53;;;;;;;;;;;25.50;42.40;;;;;;5088611;28;19978;-69
2022/05/12 00:59:27;;;;;;;;;;;25.50;42.30;;;;;;5087931;28;20288;-69
2022/05/12 01:01:55;;;;;;;;;;;25.50;42.30;;;;;;5069804;28;19931;-69
2022/05/12 01:04:22;;;;;;;;;;;25.50;42.40;;;;;;5087700;28;19924;-69
2022/05/12 01:06:51;;;;;;;;;;;25.50;42.40;;;;;;5087310;28;20013;-69
2022/05/12 01:09:20;;;;;;;;;;;25.50;42.30;;;;;;5083102;28;20367;-70
2022/05/12 01:11:50;;;;;;;;;;;25.50;42.30;;;;;;5088166;28;19924;-69
2022/05/12 01:14:17;;;;;;;;;;;25.50;42.30;;;;;;5069006;28;20399;-69
2022/05/12 01:16:46;;;;;;;;;;;25.50;42.30;;;;;;5088126;28;20010;-69
2022/05/12 01:19:24;;;;;;;;;;;25.50;42.40;;;;;;5087824;28;19995;-70
2022/05/12 01:21:52;;;;;;;;;;;25.50;42.30;;;;;;5087892;28;20327;-69
2022/05/12 01:24:20;;;;;;;;;;;25.40;42.30;;;;;;5087228;28;19936;-69
2022/05/12 01:26:47;;;;;;;;;;;25.50;42.30;;;;;;5087274;28;20381;-69
2022/05/12 01:29:15;;;;;;;;;;;25.50;42.30;;;;;;5087643;28;19974;-70
2022/05/12 01:31:42;;;;;;;;;;;25.50;42.30;;;;;;5087490;28;19956;-69
2022/05/12 01:34:10;;;;;;;;;;;25.50;42.30;;;;;;5087183;28;19931;-69
2022/05/12 01:36:37;;;;;;;;;;;25.50;42.30;;;;;;5087477;28;19924;-69
2022/05/12 01:39:06;;;;;;;;;;;25.50;42.30;;;;;;5068029;28;20000;-69
2022/05/12 01:41:33;;;;;;;;;;;25.50;42.30;;;;;;5083038;28;19973;-69
2022/05/12 01:44:01;;;;;;;;;;;25.50;42.30;;;;;;5086862;28;19924;-69
2022/05/12 01:46:28;;;;;;;;;;;25.50;42.30;;;;;;5087311;28;20339;-70
2022/05/12 01:48:55;;;;;;;;;;;25.50;42.30;;;;;;5087118;28;19924;-69
2022/05/12 01:51:22;;;;;;;;;;;25.50;42.30;;;;;;5086671;28;20110;-70
2022/05/12 01:53:49;;;;;;;;;;;25.50;42.30;;;;;;5087074;28;19971;-70
2022/05/12 01:56:16;;;;;;;;;;;25.50;42.30;;;;;;5086872;28;19924;-71
2022/05/12 01:58:43;;;;;;;;;;;25.50;42.30;;;;;;5078330;28;19924;-69
2022/05/12 02:01:11;;;;;;;;;;;25.50;42.30;;;;;;5087118;28;19967;-69
2022/05/12 02:03:38;;;;;;;;;;;25.50;42.30;;;;;;5087107;28;20031;-69
2022/05/12 02:06:05;;;;;;;;;;;25.50;42.30;;;;;;5086758;28;19977;-69
2022/05/12 02:08:32;;;;;;;;;;;25.50;42.30;;;;;;5086257;28;19931;-70
2022/05/12 02:11:00;;;;;;;;;;;25.50;42.30;;;;;;5087084;28;20001;-70
2022/05/12 02:13:27;;;;;;;;;;;25.50;42.30;;;;;;5082176;28;20394;-69
2022/05/12 02:15:56;;;;;;;;;;;25.40;42.20;;;;;;5085720;28;20380;-69
2022/05/12 02:18:24;;;;;;;;;;;25.40;42.80;;;;;;5086941;28;19967;-70
2022/05/12 02:20:51;;;;;;;;;;;25.40;42.30;;;;;;5086211;28;20000;-69
2022/05/12 02:23:18;;;;;;;;;;;25.40;42.30;;;;;;5086514;28;19967;-69
2022/05/12 02:25:46;;;;;;;;;;;25.40;42.30;;;;;;5086694;28;20424;-69
2022/05/12 02:28:13;;;;;;;;;;;25.40;42.30;;;;;;5086541;28;20438;-69
2022/05/12 02:30:40;;;;;;;;;;;25.40;42.30;;;;;;5086674;28;20370;-70
2022/05/12 02:33:08;;;;;;;;;;;25.40;42.30;;;;;;5086021;28;19924;-69
2022/05/12 02:35:36;;;;;;;;;;;25.40;42.30;;;;;;5086643;28;19925;-69
2022/05/12 02:38:03;;;;;;;;;;;25.40;42.30;;;;;;5085903;28;20033;-69
2022/05/12 02:40:31;;;;;;;;;;;25.40;42.30;;;;;;5086312;28;19928;-69
2022/05/12 02:42:58;;;;;;;;;;;25.40;42.30;;;;;;5085150;28;19924;-69
2022/05/12 02:45:27;;;;;;;;;;;25.40;42.30;;;;;;5083519;28;20018;-70
2022/05/12 02:47:55;;;;;;;;;;;25.40;42.30;;;;;;5086347;28;19966;-69
2022/05/12 02:50:22;;;;;;;;;;;25.40;42.30;;;;;;5088067;28;19967;-69
2022/05/12 02:52:49;;;;;;;;;;;25.40;42.30;;;;;;5089930;28;20017;-69
2022/05/12 02:55:16;;;;;;;;;;;25.40;42.30;;;;;;5090523;28;20371;-69
2022/05/12 02:57:43;;;;;;;;;;;25.40;42.30;;;;;;5090016;28;19963;-69
2022/05/12 03:00:13;;;;;;;;;;;25.40;42.30;;;;;;5090455;28;20437;-69
2022/05/12 03:02:40;;;;;;;;;;;25.40;42.30;;;;;;5089844;28;19924;-69
2022/05/12 03:05:07;;;;;;;;;;;25.40;42.30;;;;;;5090076;28;19985;-69
2022/05/12 03:07:35;;;;;;;;;;;25.40;42.30;;;;;;5090366;28;19939;-69
2022/05/12 03:10:03;;;;;;;;;;;25.40;42.30;;;;;;5089882;28;19924;-69
2022/05/12 03:12:32;;;;;;;;;;;25.40;42.30;;;;;;5090061;28;20346;-70
2022/05/12 03:15:00;;;;;;;;;;;25.40;42.30;;;;;;5085851;28;19924;-69
2022/05/12 03:17:28;;;;;;;;;;;25.40;42.30;;;;;;5089871;28;20011;-69
2022/05/12 03:19:55;;;;;;;;;;;25.40;42.30;;;;;;5089901;28;19990;-69
2022/05/12 03:22:22;;;;;;;;;;;25.40;42.30;;;;;;5089925;28;19924;-69
2022/05/12 03:24:49;;;;;;;;;;;25.40;42.30;;;;;;5090075;28;19928;-69
2022/05/12 03:27:16;;;;;;;;;;;25.40;42.30;;;;;;5088728;28;19969;-69
2022/05/12 03:29:43;;;;;;;;;;;25.40;42.30;;;;;;5089443;28;20342;-69
2022/05/12 03:32:10;;;;;;;;;;;25.40;42.20;;;;;;5077040;28;20164;-69
2022/05/12 03:34:39;;;;;;;;;;;25.40;42.20;;;;;;5057602;28;20194;-69
2022/05/12 03:37:07;;;;;;;;;;;25.40;42.20;;;;;;5058286;28;19935;-69
2022/05/12 03:39:42;;;;;;;;;;;25.40;42.20;;;;;;5054126;28;19943;-69
2022/05/12 03:42:12;;;;;;;;;;;25.40;42.20;;;;;;5069883;28;20008;-69
2022/05/12 03:44:59;;;;;;;;;;;25.40;42.20;;;;;;5049218;28;19932;-69
2022/05/12 03:47:27;;;;;;;;;;;25.40;42.20;;;;;;5038715;28;19974;-69
2022/05/12 03:49:57;;;;;;;;;;;25.40;42.20;;;;;;5060768;28;20011;-69
2022/05/12 03:52:24;;;;;;;;;;;25.40;42.10;;;;;;5049753;28;20347;-68
2022/05/12 03:54:51;;;;;;;;;;;25.40;42.10;;;;;;5062489;28;19929;-69
2022/05/12 03:57:19;;;;;;;;;;;25.40;42.10;;;;;;5059936;28;19971;-69
2022/05/12 03:59:50;;;;;;;;;;;25.50;42.20;;;;;;5050808;28;19961;-69
2022/05/12 04:02:18;;;;;;;;;;;25.50;42.20;;;;;;5063131;28;20396;-68
2022/05/12 04:04:46;;;;;;;;;;;25.50;42.10;;;;;;5050754;28;20376;-69
2022/05/12 04:07:14;;;;;;;;;;;25.40;42.00;;;;;;5051144;28;19925;-69
2022/05/12 04:09:41;;;;;;;;;;;25.50;42.10;;;;;;5067032;28;19932;-69
2022/05/12 04:12:09;;;;;;;;;;;25.50;42.00;;;;;;5068860;28;19929;-69
2022/05/12 04:14:37;;;;;;;;;;;25.50;42.00;;;;;;5059174;28;20002;-69
2022/05/12 04:17:05;;;;;;;;;;;25.50;42.00;;;;;;5047328;28;19928;-69
2022/05/12 04:19:32;;;;;;;;;;;25.50;41.90;;;;;;5043688;28;20074;-69
2022/05/12 04:21:59;;;;;;;;;;;25.60;42.00;;;;;;5049079;28;20365;-69
2022/05/12 04:24:26;;;;;;;;;;;25.60;41.90;;;;;;5048397;28;19950;-69
2022/05/12 04:26:53;;;;;;;;;;;25.60;41.90;;;;;;5048332;28;20002;-69
2022/05/12 04:29:20;;;;;;;;;;;25.60;41.90;;;;;;5047861;28;19928;-69
2022/05/12 04:31:47;;;;;;;;;;;25.60;41.90;;;;;;5052488;28;19986;-69
2022/05/12 04:37:01;;;;;;;;;;;25.70;41.90;;;;;;5048027;28;19932;-69
2022/05/12 04:39:31;;;;;;;;;;;25.70;41.80;;;;;;5055448;28;19940;-69
2022/05/12 04:42:03;;;;;;;;;;;25.70;41.80;;;;;;5060557;28;19925;-69
2022/05/12 04:44:30;;;;;;;;;;;25.70;41.70;;;;;;5059762;28;19924;-69
2022/05/12 04:46:57;;;;;;;;;;;25.70;41.70;;;;;;5047797;28;20416;-69
2022/05/12 04:49:26;;;;;;;;;;;25.70;41.60;;;;;;5057150;28;19932;-69
2022/05/12 04:51:53;;;;;;;;;;;25.80;41.60;;;;;;5061954;28;19932;-69
2022/05/12 04:54:24;;;;;;;;;;;25.80;41.50;;;;;;5066872;28;20324;-69
2022/05/12 04:56:51;;;;;;;;;;;25.80;41.50;;;;;;5076710;28;20103;-69
2022/05/12 04:59:18;;;;;;;;;;;25.90;41.50;;;;;;5074226;28;20318;-69
2022/05/12 05:01:45;;;;;;;;;;;25.80;41.40;;;;;;5061075;28;20428;-69
2022/05/12 05:04:12;;;;;;;;;;;25.90;41.40;;;;;;5069383;28;19978;-69
2022/05/12 05:06:39;;;;;;;;;;;25.90;41.40;;;;;;5060962;28;19978;-69
2022/05/12 05:09:06;;;;;;;;;;;25.90;41.30;;;;;;5060257;28;20316;-70
2022/05/12 05:11:37;;;;;;;;;;;26.00;41.30;;;;;;5066209;28;19924;-69
2022/05/12 05:14:05;;;;;;;;;;;26.00;41.20;;;;;;5069954;28;19924;-69
2022/05/12 05:16:32;;;;;;;;;;;26.00;41.10;;;;;;5058897;28;19928;-69
2022/05/12 05:18:59;;;;;;;;;;;26.00;41.10;;;;;;5064857;28;19928;-70
2022/05/12 05:21:26;;;;;;;;;;;26.00;41.00;;;;;;5062517;28;19971;-70
2022/05/12 05:23:53;;;;;;;;;;;26.00;41.00;;;;;;5061773;28;19925;-66
2022/05/12 05:26:21;;;;;;;;;;;26.10;41.00;;;;;;5048331;28;19929;-73
2022/05/12 05:28:48;;;;;;;;;;;26.10;41.00;;;;;;5063616;28;19964;-72
2022/05/12 05:31:15;;;;;;;;;;;26.10;40.90;;;;;;5070666;28;19935;-69
2022/05/12 05:33:42;;;;;;;;;;;26.10;40.90;;;;;;5063143;28;20020;-69
2022/05/12 05:36:09;;;;;;;;;;;26.10;40.80;;;;;;5059796;28;19928;-72
2022/05/12 05:38:38;;;;;;;;;;;26.20;40.90;;;;;;5060825;28;19979;-67
2022/05/12 05:41:05;;;;;;;;;;;26.20;41.40;;;;;;5055001;28;20372;-75
2022/05/12 05:43:32;;;;;;;;;;;26.20;40.80;;;;;;5060019;28;19929;-73
2022/05/12 05:45:59;;;;;;;;;;;26.30;40.70;;;;;;5065009;28;20444;-71
2022/05/12 05:48:26;;;;;;;;;;;26.30;40.70;;;;;;5053306;28;19936;-72
2022/05/12 05:53:41;;;;;;;;;;;26.30;40.40;;;;;;5054590;28;20462;-74
2022/05/12 05:56:12;;;;;;;;;;;26.30;40.20;;;;;;5054436;28;19982;-73
2022/05/12 05:58:40;;;;;;;;;;;26.30;40.10;;;;;;5059403;28;20369;-77
2022/05/12 06:01:07;;;;;;;;;;;26.30;40.00;;;;;;5057175;28;20068;-74
2022/05/12 06:03:34;;;;;;;;;;;26.30;39.90;;;;;;5052440;28;20047;-72
2022/05/12 06:06:01;;;;;;;;;;;26.40;39.90;;;;;;5056268;28;19970;-73
2022/05/12 06:08:28;;;;;;;;;;;26.40;39.70;;;;;;5056751;28;20533;-72
2022/05/12 06:10:59;;;;;;;;;;;26.40;39.60;;;;;;5056441;28;19990;-68
2022/05/12 06:13:27;;;;;;;;;;;26.40;39.70;;;;;;5057655;28;19983;-70
2022/05/12 06:15:54;;;;;;;;;;;26.50;39.90;;;;;;5053206;28;20364;-73
2022/05/12 06:18:21;;;;;;;;;;;26.50;39.80;;;;;;5050290;28;19955;-73
2022/05/12 06:20:49;;;;;;;;;;;26.60;39.90;;;;;;5054320;28;20404;-74
2022/05/12 06:23:17;;;;;;;;;;;26.60;39.80;;;;;;5050532;28;19932;-75
2022/05/12 06:25:45;;;;;;;;;;;26.60;39.60;;;;;;5044859;28;20393;-73
2022/05/12 06:28:12;;;;;;;;;;;26.70;39.60;;;;;;5053937;28;19928;-74
2022/05/12 06:30:40;;;;;;;;;;;26.70;39.50;;;;;;5052558;28;20018;-72
2022/05/12 06:33:07;;;;;;;;;;;26.80;39.20;;;;;;5053597;28;20287;-72
2022/05/12 06:35:34;;;;;;;;;;;26.80;39.30;;;;;;5052471;28;19928;-72
2022/05/12 06:38:02;;;;;;;;;;;26.90;39.30;;;;;;5057996;28;19944;-76
2022/05/12 06:40:29;;;;;;;;;;;26.90;39.20;;;;;;5055093;28;19978;-73
2022/05/12 06:42:58;;;;;;;;;;;26.90;39.00;;;;;;5050436;28;19955;-72
2022/05/12 06:45:25;;;;;;;;;;;27.00;39.00;;;;;;5051848;28;19932;-74
2022/05/12 06:47:53;;;;;;;;;;;27.00;39.00;;;;;;5047033;28;19951;-72
2022/05/12 06:50:24;;;;;;;;;;;27.10;39.10;;;;;;5051591;28;20073;-74
2022/05/12 06:52:51;;;;;;;;;;;27.10;39.20;;;;;;5051744;28;19933;-75
2022/05/12 06:55:19;;;;;;;;;;;27.10;39.10;;;;;;5050512;28;20011;-78
2022/05/12 06:57:47;;;;;;;;;;;27.10;39.10;;;;;;5053677;28;19929;-74
2022/05/12 07:00:16;;;;;;;;;;;27.10;39.10;;;;;;5048130;28;19972;-69
2022/05/12 07:02:44;;;;;;;;;;;27.10;39.20;;;;;;5041747;28;20376;-74
2022/05/12 07:05:13;;;;;;;;;;;27.10;39.30;;;;;;5048673;28;19944;-75
2022/05/12 07:07:42;;;;;;;;;;;27.10;39.30;;;;;;5048005;28;20023;-67
2022/05/12 07:10:09;;;;;;;;;;;27.20;39.40;;;;;;5048569;28;20030;-76
2022/05/12 07:12:38;;;;;;;;;;;27.10;39.40;;;;;;5045905;28;20277;-70
2022/05/12 07:15:06;;;;;;;;;;;27.20;39.40;;;;;;5050541;28;19970;-71
2022/05/12 07:17:37;;;;;;;;;;;27.20;39.40;;;;;;5048695;28;19929;-71
2022/05/12 07:28:26;;;;;;;;;;;27.10;39.60;;;;;;5049941;28;19968;-70
2022/05/12 07:31:03;;;;;;;;;;;27.00;39.40;;;;;;5051003;28;19936;-73
2022/05/12 07:33:42;;;;;;;;;;;27.10;39.50;;;;;;5036022;28;19967;-73
2022/05/12 07:36:14;;;;;;;;;;;27.00;39.50;;;;;;5034247;28;19959;-76
2022/05/12 07:38:42;;;;;;;;;;;27.00;39.50;;;;;;5052565;28;19986;-74
2022/05/12 07:41:12;;;;;;;;;;;27.00;39.40;;;;;;5054243;28;20014;-75
2022/05/12 07:43:40;;;;;;;;;;;27.00;39.50;;;;;;5053231;28;19932;-76
2022/05/12 07:46:08;;;;;;;;;;;27.00;39.40;;;;;;5053187;28;19995;-69
2022/05/12 07:48:35;;;;;;;;;;;27.10;39.50;;;;;;5054814;28;20396;-73
2022/05/12 07:51:02;;;;;;;;;;;27.00;39.40;;;;;;5056432;28;19981;-72
2022/05/12 07:53:29;;;;;;;;;;;27.00;39.40;;;;;;5057085;28;20380;-77
2022/05/12 07:55:57;;;;;;;;;;;27.00;39.50;;;;;;5051361;28;20389;-74
2022/05/12 07:58:24;;;;;;;;;;;27.10;39.60;;;;;;5056832;28;19950;-77
2022/05/12 08:00:53;;;;;;;;;;;27.10;39.70;;;;;;5053534;28;19924;-68
2022/05/12 08:03:22;;;;;;;;;;;27.10;39.70;;;;;;5059603;28;19964;-77
2022/05/12 08:05:49;;;;;;;;;;;27.10;39.70;;;;;;5057386;28;19936;-74
2022/05/12 08:08:17;;;;;;;;;;;27.00;39.90;;;;;;5056229;28;19933;-69
2022/05/12 08:10:44;;;;;;;;;;;27.00;40.00;;;;;;5053989;28;20420;-67
2022/05/12 08:13:16;;;;;;;;;;;27.00;40.00;;;;;;5032688;28;19928;-71
2022/05/12 08:15:47;;;;;;;;;;;27.00;40.20;;;;;;5059677;28;19959;-64
2022/05/12 08:18:19;;;;;;;;;;;27.00;40.20;;;;;;5055551;28;19936;-66
2022/05/12 08:20:46;;;;;;;;;;;27.00;40.10;;;;;;5061616;28;19993;-65
2022/05/12 08:23:13;;;;;;;;;;;27.00;40.20;;;;;;5055067;28;19993;-66
2022/05/12 08:25:41;;;;;;;;;;;26.90;40.20;;;;;;5060960;28;20265;-68
2022/05/12 08:28:09;;;;;;;;;;;26.90;40.40;;;;;;5051307;28;20545;-67
2022/05/12 08:30:36;;;;;;;;;;;26.90;40.60;;;;;;5048936;28;19932;-67
2022/05/12 08:33:05;;;;;;;;;;;26.90;40.70;;;;;;5058198;28;20219;-68
2022/05/12 08:35:32;;;;;;;;;;;26.90;40.80;;;;;;5056302;28;19981;-65
2022/05/12 08:37:59;;;;;;;;;;;26.90;40.90;;;;;;5053977;28;20697;-66
2022/05/12 08:40:32;;;;;;;;;;;26.90;41.20;;;;;;5054778;28;19968;-63
2022/05/12 08:43:05;;;;;;;;;;;26.90;41.20;;;;;;5053229;28;19932;-65
2022/05/12 08:45:33;;;;;;;;;;;26.90;41.30;;;;;;5039282;28;19938;-63
2022/05/12 08:48:01;;;;;;;;;;;26.90;41.30;;;;;;5058116;28;20435;-67
2022/05/12 08:50:29;;;;;;;;;;;26.90;41.50;;;;;;5056968;28;19948;-67
2022/05/12 08:53:01;;;;;;;;;;;26.90;41.70;;;;;;5060752;28;20029;-66
2022/05/12 08:55:30;;;;;;;;;;;27.00;41.80;;;;;;5055869;28;20055;-67
2022/05/12 08:58:03;;;;;;;;;;;27.00;41.80;;;;;;5057439;28;19977;-67
2022/05/12 09:00:38;;;;;;;;;;;27.00;41.60;;;;;;5059494;28;19933;-67
2022/05/12 09:03:24;;;;;;;;;;;27.00;41.60;;;;;;5057110;28;19956;-68
2022/05/12 09:06:04;;;;;;;;;;;27.00;41.50;;;;;;5040398;28;19933;-70
2022/05/12 09:08:39;;;;;;;;;;;27.00;41.60;;;;;;5056985;28;19929;-65
2022/05/12 09:11:23;;;;;;;;;;;27.00;41.80;;;;;;5051252;28;20272;-69
2022/05/12 09:13:51;;;;;;;;;;;27.00;42.00;;;;;;5055757;28;20380;-74
2022/05/12 09:16:32;;;;;;;;;;;27.00;42.10;;;;;;5061590;28;19936;-71
2022/05/12 09:19:00;;;;;;;;;;;27.00;42.30;;;;;;5043547;28;20010;-74
2022/05/12 09:21:29;;;;;;;;;;;27.00;42.30;;;;;;5052917;28;19979;-71
2022/05/12 09:23:57;;;;;;;;;;;27.10;42.40;;;;;;5065843;28;20655;-76
2022/05/12 09:26:36;;;;;;;;;;;27.10;42.30;;;;;;5051833;28;19932;-67
2022/05/12 09:29:08;;;;;;;;;;;27.10;42.30;;;;;;5036551;28;20380;-75
2022/05/12 09:31:35;;;;;;;;;;;27.10;42.10;;;;;;5051442;28;20380;-72
2022/05/12 09:34:22;;;;;;;;;;;27.20;42.10;;;;;;5052837;28;20547;-73
2022/05/12 09:36:49;;;;;;;;;;;27.20;42.00;;;;;;5059777;28;19987;-74
2022/05/12 09:39:36;;;;;;;;;;;27.30;42.20;;;;;;5060820;28;19980;-75
2022/05/12 09:42:08;;;;;;;;;;;27.30;42.10;;;;;;5056832;28;19925;-71
2022/05/12 09:44:35;;;;;;;;;;;27.30;42.10;;;;;;5053546;28;19994;-72
2022/05/12 09:47:10;;;;;;;;;;;27.40;42.20;;;;;;5053854;28;19960;-69
2022/05/12 09:49:39;;;;;;;;;;;27.40;42.20;;;;;;5056476;28;19929;-71
2022/05/12 09:52:26;;;;;;;;;;;27.40;42.00;;;;;;5058479;28;19933;-65
2022/05/12 09:55:13;;;;;;;;;;;27.50;42.10;;;;;;5032682;28;20365;-70
2022/05/12 09:57:58;;;;;;;;;;;27.50;42.10;;;;;;5059202;28;20292;-72
2022/05/12 10:01:20;;;;;;;10.10;5.65;;;27.60;41.70;;;;;;5059516;27;20436;-60
2022/05/12 10:09:31;;;;;;;6.38;5.68;;;27.70;41.70;;;;;;5035264;28;20033;-63
2022/05/12 10:12:17;;;;;;;8.65;5.60;;;27.70;41.80;;;;;;5041171;28;20048;-64
2022/05/12 10:15:07;;;;;;;5.78;5.05;;;27.80;41.80;;;;;;5021959;28;20080;-61
2022/05/12 10:17:43;;;;;;;6.50;5.60;;;27.80;41.60;;;;;;5032931;28;20132;-60
2022/05/12 10:20:21;;;;;;;6.03;5.03;;;27.80;41.50;;;;;;5037841;28;20501;-61
2022/05/12 10:23:05;;;;;;;6.15;4.95;;;27.80;41.40;;;;;;5037101;28;20049;-63
2022/05/12 10:25:59;;;;;;;5.50;4.80;;;27.80;41.20;;;;;;5033498;28;20107;-62
2022/05/12 10:28:52;;;;;;;7.88;5.53;;;27.80;41.20;;;;;;5038730;28;20064;-63
2022/05/12 10:31:52;;;;;;;7.43;4.80;;;27.90;41.30;;;;;;5040655;28;20076;-63
2022/05/12 10:34:51;;;;;;;7.95;4.65;;;27.90;41.20;;;;;;5034730;28;20541;-62
2022/05/12 10:37:58;;;;;;;7.47;5.40;;;27.90;41.10;;;;;;5029577;28;20076;-63
2022/05/12 10:40:41;;;;;;;5.65;4.88;;;27.90;41.10;;;;;;5031927;28;20053;-64
2022/05/12 10:43:46;;;;;;;9.13;5.40;;;28.00;41.10;;;;;;5034642;28;20511;-62
2022/05/12 10:46:24;;;;;;;7.55;4.72;;;28.00;41.10;;;;;;5027796;28;20049;-63
2022/05/12 10:49:02;;;;;;;11.27;5.40;;;28.00;41.00;;;;;;5028065;28;20045;-63
2022/05/12 10:51:52;;;;;;;5.53;4.75;;;28.00;40.90;;;;;;5029930;28;20513;-60
2022/05/12 10:54:34;;;;;;;;;;;28.10;40.80;;;;;;5039306;28;20077;-63
2022/05/12 10:57:31;;;;;;;9.05;5.70;;;28.10;40.70;;;;;;5031031;28;19932;-62
2022/05/12 11:00:27;;;;;;;7.53;5.82;;;28.10;40.60;;;;;;5028644;28;20049;-63
2022/05/12 11:03:01;;;;;;;5.82;5.20;;;28.10;40.40;;;;;;5034302;28;20045;-62
2022/05/12 11:05:42;;;;;;;12.05;5.43;;;28.10;40.40;;;;;;5033605;28;20048;-62
2022/05/12 11:08:28;;;;;;;10.68;4.97;;;28.10;40.70;;;;;;5029318;28;20049;-64
2022/05/12 11:11:05;;;;;;;8.27;5.25;;;28.20;40.90;;;;;;5023746;28;20095;-60
2022/05/12 11:13:50;;;;;;;8.27;5.40;;;28.20;41.00;;;;;;5016018;28;20076;-64
2022/05/12 11:16:30;;;;;;;12.85;5.78;;;28.30;41.20;;;;;;5022871;28;20046;-64
2022/05/12 11:19:19;;;;;;;5.25;4.75;;;28.30;41.40;;;;;;5018905;28;20050;-65
2022/05/12 11:22:26;;;;;;;5.75;4.75;;;28.30;41.40;;;;;;5021675;28;20461;-65
2022/05/12 11:25:02;;;;;;;5.25;4.75;;;28.30;41.40;;;;;;5018396;28;20045;-65
2022/05/12 11:29:41;;;;;;;5.75;4.72;;;28.40;41.20;;;;;;5019320;28;20073;-70
2022/05/12 11:30:55;;;;;;;7.13;5.25;;;28.40;41.20;;;;;;5024327;28;20045;-71
2022/05/12 11:33:36;;;;;;;9.05;4.78;;;28.10;41.30;;;;;;5028361;28;20148;-66
2022/05/12 11:36:04;;;;;;;4.60;4.30;;;27.40;42.60;;;;;;5020411;28;20076;-64
2022/05/12 11:38:45;;;;;;;4.95;4.45;;;26.80;43.80;;;;;;5023669;28;20557;-65
2022/05/12 11:41:36;;;;;;;4.85;4.43;;;26.20;45.10;;;;;;5020604;28;20482;-70
2022/05/12 11:44:26;;;;;;;5.30;4.80;;;25.70;46.40;;;;;;5028954;28;20468;-66
2022/05/12 11:47:21;;;;;;;4.82;4.40;;;25.30;47.30;;;;;;5025185;28;20042;-71
2022/05/12 11:50:27;;;;;;;5.72;5.22;;;25.00;48.70;;;;;;5033550;28;20053;-66
2022/05/12 11:53:30;;;;;;;9.50;4.43;;;24.70;49.10;;;;;;5021126;28;20498;-64
2022/05/12 11:56:03;;;;;;;8.82;4.95;;;24.50;50.00;;;;;;5021838;28;20046;-63
2022/05/12 11:58:47;;;;;;;5.20;4.70;;;24.40;50.40;;;;;;5020794;28;20131;-67
2022/05/12 12:01:50;;;;;;;9.00;4.93;;;24.30;50.70;;;;;;5018453;28;20049;-65
2022/05/12 12:04:45;;;;;;;5.97;4.25;;;24.30;50.80;;;;;;5022062;28;20068;-63
2022/05/12 12:07:53;;;;;;;5.03;4.60;;;24.40;50.40;;;;;;5050273;28;20061;-62
2022/05/12 12:10:32;;;;;;;6.18;4.50;;;24.50;50.10;;;;;;5041636;28;20131;-62
2022/05/12 12:13:25;;;;;;;5.15;4.03;;;24.60;50.00;;;;;;5016995;28;20045;-64
2022/05/12 12:16:07;;;;;;;5.18;4.25;;;24.60;49.80;;;;;;5014990;28;20675;-64
2022/05/12 12:18:57;;;;;;;6.60;5.28;;;24.70;50.40;;;;;;5020406;28;20045;-61
2022/05/12 12:21:42;;;;;;;6.57;4.35;;;24.70;49.30;;;;;;5015352;28;20048;-66
2022/05/12 12:24:43;;;;;;;6.22;4.68;;;24.70;49.10;;;;;;5021043;28;20064;-62
2022/05/12 12:27:27;;;;;;;6.22;4.22;;;24.70;49.00;;;;;;5052326;28;20057;-65
2022/05/12 12:30:14;;;;;;;6.43;4.57;;;24.70;48.70;;;;;;5021957;28;20132;-63
2022/05/12 12:32:41;;;;;;;6.07;4.40;;;24.70;48.60;;;;;;5016174;28;20038;-71
2022/05/12 12:35:28;;;;;;;6.60;4.43;;;24.70;48.50;;;;;;5019298;28;20045;-64
2022/05/12 12:37:55;;;;;;;7.50;4.55;;;24.70;48.30;;;;;;5022876;28;20092;-66
2022/05/12 12:40:43;;;;;;;5.80;4.15;;;24.60;48.30;;;;;;5023485;28;20488;-66
2022/05/12 12:43:20;;;;;;;8.45;4.50;;;24.70;48.20;;;;;;5016988;28;20076;-66
2022/05/12 12:45:52;;;;;;;5.22;4.72;;;24.70;48.30;;;;;;5019539;28;20077;-66
2022/05/12 12:48:37;;;;;;;5.85;4.22;;;24.70;48.00;;;;;;5023154;28;20065;-66
2022/05/12 12:51:08;;;;;;;5.35;4.85;;;24.70;48.00;;;;;;5032462;28;20750;-67
2022/05/12 12:56:35;;;;;;;4.78;4.38;;;24.70;48.20;;;;;;5020502;28;20103;-68
2022/05/12 12:59:07;;;;;;;5.50;4.03;;;24.70;48.50;;;;;;5016847;28;20045;-65
2022/05/12 13:01:53;;;;;;;6.13;4.50;;;24.70;48.60;;;;;;5014149;28;20371;-65
2022/05/12 13:04:32;;;;;;;6.05;4.28;;;24.80;48.30;;;;;;5018940;28;20087;-64
2022/05/12 13:07:09;;;;;;;6.60;4.82;;;24.80;48.20;;;;;;5020070;28;20049;-69
2022/05/12 13:09:41;;;;;;;9.02;4.70;;;24.70;48.50;;;;;;5018000;28;20650;-70
2022/05/12 13:12:17;;;;;;;7.22;4.80;;;24.60;48.60;;;;;;5014704;28;20049;-63
2022/05/12 13:14:47;;;;;;;4.53;4.13;;;24.50;48.50;;;;;;5015821;28;20096;-65
2022/05/12 13:17:26;;;;;;;4.28;3.88;;;24.30;48.60;;;;;;5016587;28;20632;-67
2022/05/12 13:19:57;;;;;;;5.50;4.13;;;24.30;48.90;;;;;;5019398;28;20076;-65
2022/05/12 13:22:31;;;;;;;5.35;4.60;;;24.20;49.00;;;;;;5021215;28;20041;-68
2022/05/12 13:24:58;;;;;;;4.35;3.95;;;24.10;49.20;;;;;;5020750;28;20049;-66
2022/05/12 13:27:35;;;;;;;4.57;4.18;;;24.10;49.30;;;;;;5027152;28;20139;-65
2022/05/12 13:30:05;;;;;;;5.03;4.55;;;24.10;49.30;;;;;;5019855;28;20050;-72
2022/05/12 13:32:37;;;;;;;9.48;4.28;;;24.10;49.50;;;;;;5014460;28;20046;-74
2022/05/12 13:35:15;;;;;;;4.18;3.78;;;24.00;49.60;;;;;;5021557;28;20057;-67
2022/05/12 13:38:00;;;;;;;5.90;4.00;;;24.00;50.00;;;;;;5011178;28;20049;-69
2022/05/12 13:40:49;;;;;;;7.07;4.22;;;24.00;50.30;;;;;;5019178;28;20123;-70
2022/05/12 13:43:44;;;;;;;4.95;3.67;;;23.90;50.20;;;;;;5018711;28;20111;-71
2022/05/12 13:46:22;;;;;;;5.95;3.90;;;23.90;50.40;;;;;;5012341;28;20045;-72
2022/05/12 13:49:09;;;;;;;16.10;4.75;;;23.90;50.40;;;;;;5018372;28;20365;-72
2022/05/12 13:51:48;;;;;;;4.63;4.15;;;24.00;50.60;;;;;;5016194;28;20037;-68
2022/05/12 13:54:39;;;;;;;14.85;4.18;;;24.00;50.50;;;;;;5017181;28;20057;-61
2022/05/12 13:57:28;;;;;;;8.80;4.75;;;24.00;50.50;;;;;;5014021;28;20037;-66
2022/05/12 13:59:59;;;;;;;7.03;4.05;;;24.00;50.40;;;;;;5012238;28;20140;-68
2022/05/12 14:02:37;;;;;;;5.75;4.35;;;24.00;50.80;;;;;;5014811;28;20045;-69
2022/05/12 14:05:23;;;;;;;7.03;4.20;;;24.00;50.90;;;;;;5019451;28;20049;-74
2022/05/12 14:08:28;;;;;;;4.90;4.13;;;24.00;50.80;;;;;;5025437;28;20042;-66
2022/05/12 14:11:13;;;;;;;6.35;4.10;;;24.00;50.70;;;;;;5020177;28;20045;-70
2022/05/12 14:19:42;;;;;;;9.07;4.00;;;24.00;50.30;;;;;;5011485;28;20069;-66
2022/05/12 14:22:16;;;;;;;6.53;4.05;;;23.90;50.30;;;;;;5018644;28;20049;-65
2022/05/12 14:24:47;;;;;;;4.80;3.70;;;24.00;50.10;;;;;;5015087;28;20050;-63
2022/05/12 14:27:17;;;;;;;4.75;3.85;;;23.90;50.00;;;;;;5018376;28;20045;-65
2022/05/12 14:29:45;;;;;;;5.18;4.10;;;23.90;49.80;;;;;;5018911;28;20132;-66
2022/05/12 14:32:15;;;;;;;4.55;3.97;;;23.90;49.60;;;;;;5017851;28;20406;-64
2022/05/12 14:34:46;;;;;;;5.32;3.80;;;23.90;49.50;;;;;;5015113;28;20254;-65
2022/05/12 14:37:14;;;;;;;3.85;3.47;;;23.90;49.30;;;;;;5011391;28;20129;-65
2022/05/12 14:39:41;;;;;;;5.00;3.67;;;23.90;49.10;;;;;;5017955;28;20041;-65
2022/05/12 14:42:08;;;;;;;3.35;3.05;;;23.90;49.00;;;;;;5015787;28;20107;-66
2022/05/12 14:44:36;;;;;;;3.92;3.50;;;23.80;48.80;;;;;;5011977;28;20330;-64
2022/05/12 14:47:07;;;;;;;3.40;3.10;;;23.80;48.80;;;;;;5026942;28;20045;-64